Time;durP1;ratioP1;P1;durP2;ratioP2;P2;SDS_P1;SDS_P2;PMS_P1;PMS_P2;Temp;Humidity;BMP_temperature;BMP_pressure;BME280_temperature;BME280_humidity;BME280_pressure;Samples;Min_cycle;Max_cycle;Signal;HPM_P1;HPM_P2
2024/01/27 00:02:00;;;;;;;0.20;0.20;;;;;;;2.06;100.00;98138.59;4988932;28;20123;-77
2024/01/27 00:04:45;;;;;;;0.20;0.20;;;;;;;2.06;100.00;98143.88;4987221;28;20235;-77
2024/01/27 00:07:31;;;;;;;0.20;0.20;;;;;;;2.07;100.00;98150.00;4987087;28;20451;-75
2024/01/27 00:10:17;;;;;;;0.20;0.20;;;;;;;2.02;100.00;98144.34;4988560;28;20041;-76
2024/01/27 00:13:03;;;;;;;0.20;0.20;;;;;;;2.09;100.00;98155.94;4990326;28;20439;-77
2024/01/27 00:15:49;;;;;;;0.20;0.20;;;;;;;2.06;100.00;98153.63;4986735;28;20119;-73
2024/01/27 00:18:38;;;;;;;0.13;0.13;;;;;;;2.07;100.00;98148.19;4987057;28;20125;-73
2024/01/27 00:21:24;;;;;;;0.20;0.20;;;;;;;2.08;100.00;98159.56;4986830;28;20343;-73
2024/01/27 00:24:10;;;;;;;0.30;0.30;;;;;;;2.04;100.00;98151.13;4989248;28;20046;-73
2024/01/27 00:26:56;;;;;;;0.15;0.15;;;;;;;2.06;100.00;98153.63;4985196;28;20042;-75
2024/01/27 00:29:42;;;;;;;0.20;0.20;;;;;;;2.10;100.00;98157.59;4988521;28;20054;-73
2024/01/27 00:32:28;;;;;;;0.20;0.20;;;;;;;2.12;100.00;98160.94;4986963;28;20096;-75
2024/01/27 00:35:17;;;;;;;0.20;0.20;;;;;;;2.10;100.00;98157.59;4987212;28;20342;-76
2024/01/27 00:38:03;;;;;;;0.20;0.20;;;;;;;2.07;100.00;98152.63;4987464;28;20077;-75
2024/01/27 00:40:49;;;;;;;0.28;0.28;;;;;;;2.06;100.00;98154.44;4987174;28;20246;-74
2024/01/27 00:43:35;;;;;;;0.20;0.20;;;;;;;2.03;100.00;98149.47;4987031;28;20042;-72
2024/01/27 00:46:21;;;;;;;0.20;0.20;;;;;;;2.03;100.00;98149.47;4987736;28;20046;-73
2024/01/27 00:49:06;;;;;;;0.20;0.20;;;;;;;2.04;100.00;98150.31;4988964;28;20042;-74
2024/01/27 00:51:52;;;;;;;0.30;0.30;;;;;;;1.97;100.00;98151.91;4982941;28;20034;-74
2024/01/27 00:54:38;;;;;;;0.20;0.20;;;;;;;1.86;100.00;98164.34;4987314;28;20042;-75
2024/01/27 00:57:24;;;;;;;0.20;0.20;;;;;;;1.80;100.00;98158.88;4986541;28;20077;-76
2024/01/27 01:00:11;;;;;;;0.25;0.25;;;;;;;1.85;100.00;98164.50;4991433;28;20388;-73
2024/01/27 01:02:56;;;;;;;0.20;0.20;;;;;;;1.90;100.00;98173.63;4987480;28;20167;-75
2024/01/27 01:05:42;;;;;;;0.20;0.20;;;;;;;1.96;100.00;98180.13;4987094;28;20379;-76
2024/01/27 01:08:28;;;;;;;0.20;0.20;;;;;;;1.98;100.00;98183.44;4987247;28;20146;-76
2024/01/27 01:11:14;;;;;;;0.15;0.15;;;;;;;1.93;100.00;98186.50;4986871;28;20053;-76
2024/01/27 01:14:01;;;;;;;0.20;0.20;;;;;;;1.90;100.00;98186.00;4987989;28;20077;-75
2024/01/27 01:16:46;;;;;;;0.20;0.20;;;;;;;1.93;100.00;98189.16;4989138;28;20046;-75
2024/01/27 01:19:32;;;;;;;0.20;0.20;;;;;;;1.97;100.00;98202.91;4988802;28;20724;-76
2024/01/27 01:22:18;;;;;;;0.30;0.30;;;;;;;1.98;100.00;98199.28;4988238;28;20042;-75
2024/01/27 01:25:04;;;;;;;0.20;0.20;;;;;;;2.05;100.00;98202.97;4985733;28;20042;-74
2024/01/27 01:27:52;;;;;;;0.20;0.20;;;;;;;2.11;100.00;98210.28;4985966;28;20046;-76
2024/01/27 01:30:38;;;;;;;0.22;0.22;;;;;;;2.07;100.00;98206.28;4986468;28;21727;-73
2024/01/27 01:33:24;;;;;;;0.25;0.25;;;;;;;1.93;100.00;98214.72;4987936;28;20037;-73
2024/01/27 01:36:10;;;;;;;0.30;0.30;;;;;;;1.81;100.00;98195.66;4990391;28;20050;-75
2024/01/27 01:38:56;;;;;;;0.20;0.20;;;;;;;1.81;100.00;98203.59;4989561;28;20121;-74
2024/01/27 01:41:41;;;;;;;0.20;0.20;;;;;;;1.76;100.00;98207.66;4985062;28;20045;-73
2024/01/27 01:44:30;;;;;;;0.20;0.20;;;;;;;1.63;100.00;98210.63;4986368;28;20061;-72
2024/01/27 01:47:16;;;;;;;0.30;0.30;;;;;;;1.59;100.00;98217.22;4986865;28;20045;-73
2024/01/27 01:50:03;;;;;;;0.20;0.20;;;;;;;1.57;100.00;98208.63;4986409;28;20121;-74
2024/01/27 01:52:49;;;;;;;0.20;0.20;;;;;;;1.50;100.00;98205.75;4987372;28;20042;-75
2024/01/27 01:55:36;;;;;;;0.20;0.20;;;;;;;1.41;100.00;98198.72;4987767;28;20054;-73
2024/01/27 01:58:22;;;;;;;0.20;0.20;;;;;;;1.33;100.00;98203.91;4986058;28;20246;-76
2024/01/27 02:01:09;;;;;;;0.20;0.20;;;;;;;1.39;100.00;98208.56;4988164;28;20116;-72
2024/01/27 02:03:56;;;;;;;0.10;0.10;;;;;;;1.38;100.00;98202.47;4986884;28;20314;-73
2024/01/27 02:06:42;;;;;;;0.20;0.20;;;;;;;1.48;100.00;98199.78;4986806;28;20444;-72
2024/01/27 02:09:28;;;;;;;0.20;0.20;;;;;;;1.52;100.00;98195.03;4983493;28;20048;-75
2024/01/27 02:12:14;;;;;;;0.20;0.20;;;;;;;1.56;100.00;98199.88;4981025;28;20038;-75
2024/01/27 02:14:59;;;;;;;0.20;0.20;;;;;;;1.53;100.00;98208.06;4991029;28;20046;-73
2024/01/27 02:17:45;;;;;;;0.20;0.20;;;;;;;1.37;100.00;98198.19;4988015;28;20298;-76
2024/01/27 02:20:31;;;;;;;0.20;0.20;;;;;;;1.33;100.00;98215.28;4988426;28;20332;-75
2024/01/27 02:23:17;;;;;;;0.30;0.30;;;;;;;1.24;100.00;98208.25;4984326;28;20209;-74
2024/01/27 02:26:03;;;;;;;0.20;0.20;;;;;;;1.21;100.00;98200.63;4987299;28;20156;-73
2024/01/27 02:28:48;;;;;;;0.13;0.13;;;;;;;1.11;100.00;98199.88;4988021;28;20077;-75
2024/01/27 02:31:34;;;;;;;0.20;0.20;;;;;;;0.87;100.00;98202.19;4986582;28;20042;-72
2024/01/27 02:34:20;;;;;;;0.20;0.20;;;;;;;0.66;100.00;98205.88;4990019;28;20412;-74
2024/01/27 02:37:06;;;;;;;0.20;0.20;;;;;;;0.57;100.00;98212.00;4986084;28;20516;-73
2024/01/27 02:39:52;;;;;;;0.20;0.20;;;;;;;0.48;100.00;98204.97;4986370;28;20143;-73
2024/01/27 02:42:38;;;;;;;0.30;0.30;;;;;;;0.38;100.00;98212.03;4987410;28;20042;-73
2024/01/27 02:45:23;;;;;;;0.30;0.30;;;;;;;0.31;100.00;98216.19;4986404;28;20491;-75
2024/01/27 02:48:09;;;;;;;0.20;0.20;;;;;;;0.26;100.00;98204.31;4987615;28;20050;-75
2024/01/27 02:50:55;;;;;;;0.20;0.20;;;;;;;0.21;100.00;98206.50;4985962;28;20093;-74
2024/01/27 02:53:41;;;;;;;0.20;0.20;;;;;;;0.16;100.00;98206.13;4987751;28;20042;-74
2024/01/27 02:56:27;;;;;;;0.20;0.20;;;;;;;0.06;100.00;98201.81;4985055;28;20078;-73
2024/01/27 02:59:13;;;;;;;0.20;0.20;;;;;;;-0.05;100.00;98208.06;4987482;28;20050;-72
2024/01/27 03:01:59;;;;;;;0.20;0.20;;;;;;;-0.15;100.00;98207.25;4971130;28;20084;-74
2024/01/27 03:04:44;;;;;;;0.20;0.20;;;;;;;-0.19;100.00;98216.38;4985651;28;20053;-75
2024/01/27 03:07:30;;;;;;;0.20;0.20;;;;;;;-0.24;100.00;98208.06;4985308;28;20092;-75
2024/01/27 03:10:16;;;;;;;0.20;0.20;;;;;;;-0.29;100.00;98208.50;4987843;28;20154;-74
2024/01/27 03:13:02;;;;;;;0.20;0.20;;;;;;;-0.33;100.00;98218.44;4985266;28;20038;-75
2024/01/27 03:15:49;;;;;;;0.20;0.20;;;;;;;-0.40;100.00;98222.59;4984688;28;20074;-75
2024/01/27 03:18:36;;;;;;;0.20;0.20;;;;;;;-0.46;100.00;98217.88;4985612;28;20042;-73
2024/01/27 03:21:22;;;;;;;0.20;0.20;;;;;;;-0.45;100.00;98230.06;4986708;28;20492;-73
2024/01/27 03:24:11;;;;;;;0.20;0.20;;;;;;;-0.60;100.00;98213.84;4983603;28;20045;-73
2024/01/27 03:26:56;;;;;;;0.20;0.20;;;;;;;-0.65;100.00;98218.66;4986367;28;20042;-76
2024/01/27 03:29:42;;;;;;;0.20;0.20;;;;;;;-0.72;100.00;98216.72;4986212;28;20038;-73
2024/01/27 03:32:28;;;;;;;0.20;0.20;;;;;;;-0.83;100.00;98219.47;4983781;28;20177;-73
2024/01/27 03:35:14;;;;;;;0.30;0.30;;;;;;;-0.85;100.00;98216.97;4986412;28;20042;-76
2024/01/27 03:38:00;;;;;;;0.20;0.20;;;;;;;-0.79;100.00;98212.97;4987906;28;20769;-72
2024/01/27 03:40:46;;;;;;;0.20;0.20;;;;;;;-0.89;100.00;98210.31;4988525;28;20042;-74
2024/01/27 03:43:34;;;;;;;0.20;0.20;;;;;;;-0.94;100.00;98226.47;4986727;28;20046;-76
2024/01/27 03:46:20;;;;;;;0.10;0.10;;;;;;;-1.03;100.00;98218.56;4983604;28;20050;-75
2024/01/27 03:49:06;;;;;;;0.20;0.20;;;;;;;-1.00;100.00;98219.13;4989775;28;20471;-72
2024/01/27 03:51:54;;;;;;;0.20;0.20;;;;;;;-0.97;100.00;98221.50;4987245;28;20120;-74
2024/01/27 03:54:40;;;;;;;0.20;0.20;;;;;;;-1.06;100.00;98224.91;4991722;28;20044;-73
2024/01/27 03:57:26;;;;;;;0.20;0.20;;;;;;;-1.09;100.00;98225.16;4989819;28;20049;-75
2024/01/27 04:00:12;;;;;;;0.20;0.20;;;;;;;-1.18;100.00;98226.78;4989612;28;20038;-72
2024/01/27 04:03:01;;;;;;;0.20;0.20;;;;;;;-1.24;100.00;98222.09;4987429;28;20501;-71
2024/01/27 04:05:47;;;;;;;0.20;0.20;;;;;;;-1.20;100.00;98228.72;4987206;28;20093;-73
2024/01/27 04:08:33;;;;;;;0.20;0.20;;;;;;;-1.17;100.00;98232.88;4988069;28;20073;-74
2024/01/27 04:11:20;;;;;;;0.20;0.20;;;;;;;-1.22;100.00;98227.22;4987333;28;20261;-75
2024/01/27 04:14:06;;;;;;;0.25;0.25;;;;;;;-1.19;100.00;98224.31;4985321;28;20080;-73
2024/01/27 04:16:52;;;;;;;0.20;0.20;;;;;;;-1.26;100.00;98236.28;4987524;28;20056;-72
2024/01/27 04:19:40;;;;;;;0.20;0.20;;;;;;;-1.18;100.00;98246.97;4990427;28;20048;-76
2024/01/27 04:22:26;;;;;;;0.30;0.30;;;;;;;-1.21;100.00;98242.84;4986526;28;20500;-75
2024/01/27 04:25:12;;;;;;;0.20;0.20;;;;;;;-1.27;100.00;98240.72;4989204;28;20671;-76
2024/01/27 04:27:58;;;;;;;0.20;0.20;;;;;;;-1.25;100.00;98236.16;4988648;28;20034;-72
2024/01/27 04:30:44;;;;;;;0.20;0.20;;;;;;;-1.33;100.00;98228.09;4990709;28;20180;-76
2024/01/27 04:33:29;;;;;;;0.20;0.20;;;;;;;-1.31;100.00;98234.09;4988658;28;20097;-75
2024/01/27 04:36:25;;;;;;;0.20;0.20;;;;;;;-1.25;100.00;98224.81;4988189;28;20044;-73
2024/01/27 04:39:11;;;;;;;0.30;0.30;;;;;;;-1.16;100.00;98224.88;4988166;28;20569;-73
2024/01/27 04:41:58;;;;;;;0.30;0.30;;;;;;;-1.00;100.00;98234.06;4987199;28;20042;-74
2024/01/27 04:44:44;;;;;;;0.20;0.20;;;;;;;-0.88;100.00;98244.34;4986368;28;20384;-76
2024/01/27 04:47:30;;;;;;;0.25;0.25;;;;;;;-0.86;100.00;98244.19;4987604;28;21015;-75
2024/01/27 04:50:16;;;;;;;0.20;0.20;;;;;;;-0.87;100.00;98245.16;4988562;28;20355;-72
2024/01/27 04:53:02;;;;;;;0.20;0.20;;;;;;;-0.84;100.00;98250.19;4988284;28;20546;-73
2024/01/27 04:55:48;;;;;;;0.20;0.20;;;;;;;-0.85;100.00;98243.25;4988969;28;20034;-73
2024/01/27 04:58:34;;;;;;;0.20;0.20;;;;;;;-0.85;100.00;98238.84;4986569;28;20050;-73
2024/01/27 05:01:20;;;;;;;0.20;0.20;;;;;;;-0.84;100.00;98260.69;4986223;28;20046;-72
2024/01/27 05:04:06;;;;;;;0.10;0.10;;;;;;;-0.90;100.00;98264.69;4988383;28;20540;-74
2024/01/27 05:06:52;;;;;;;0.20;0.20;;;;;;;-0.97;100.00;98265.34;4989746;28;20042;-73
2024/01/27 05:09:38;;;;;;;0.20;0.20;;;;;;;-0.94;100.00;98259.81;4989262;28;20042;-74
2024/01/27 05:12:24;;;;;;;0.20;0.20;;;;;;;-0.97;100.00;98260.91;4991867;28;20043;-73
2024/01/27 05:15:11;;;;;;;0.20;0.20;;;;;;;-1.01;100.00;98254.28;4989116;28;20061;-73
2024/01/27 05:17:56;;;;;;;0.20;0.20;;;;;;;-1.11;100.00;98258.63;4987819;28;20519;-74
2024/01/27 05:20:42;;;;;;;0.30;0.30;;;;;;;-1.21;100.00;98263.00;4989346;28;20672;-74
2024/01/27 05:23:29;;;;;;;0.20;0.20;;;;;;;-1.32;100.00;98270.97;4988484;28;20493;-73
2024/01/27 05:26:15;;;;;;;0.20;0.20;;;;;;;-1.35;100.00;98272.06;4988423;28;20077;-75
2024/01/27 05:29:01;;;;;;;0.20;0.20;;;;;;;-1.40;100.00;98271.63;4988821;28;20042;-72
2024/01/27 05:31:47;;;;;;;0.20;0.20;;;;;;;-1.34;100.00;98272.88;4987108;28;20582;-73
2024/01/27 05:34:33;;;;;;;0.20;0.20;;;;;;;-1.42;100.00;98271.75;4991186;28;20630;-72
2024/01/27 05:37:19;;;;;;;0.20;0.20;;;;;;;-1.48;100.00;98277.53;4991527;28;20137;-74
2024/01/27 05:40:07;;;;;;;0.20;0.20;;;;;;;-1.51;100.00;98288.28;4988520;28;20049;-72
2024/01/27 05:42:52;;;;;;;0.20;0.20;;;;;;;-1.53;100.00;98284.94;4989796;28;20538;-73
2024/01/27 05:45:38;;;;;;;0.20;0.20;;;;;;;-1.52;100.00;98278.75;4990568;28;20884;-72
2024/01/27 05:48:24;;;;;;;0.20;0.20;;;;;;;-1.56;100.00;98287.81;4988323;28;20048;-73
2024/01/27 05:51:12;;;;;;;0.20;0.20;;;;;;;-1.60;100.00;98293.47;4988675;28;20046;-75
2024/01/27 05:53:58;;;;;;;0.20;0.20;;;;;;;-1.62;100.00;98290.16;4988744;28;20689;-74
2024/01/27 05:56:43;;;;;;;0.20;0.20;;;;;;;-1.70;100.00;98293.41;4989512;28;20054;-72
2024/01/27 05:59:29;;;;;;;0.20;0.20;;;;;;;-1.71;100.00;98297.81;4987676;28;20058;-73
2024/01/27 06:02:17;;;;;;;0.20;0.20;;;;;;;-1.72;100.00;98300.56;4986624;28;20394;-76
2024/01/27 06:05:03;;;;;;;0.20;0.20;;;;;;;-1.74;100.00;98305.09;4988259;28;20126;-74
2024/01/27 06:07:49;;;;;;;0.20;0.20;;;;;;;-1.80;100.00;98301.19;4988307;28;20679;-73
2024/01/27 06:10:38;;;;;;;0.20;0.20;;;;;;;-1.81;100.00;98307.41;4987755;28;20464;-73
2024/01/27 06:13:24;;;;;;;0.20;0.20;;;;;;;-1.86;100.00;98293.84;4986438;28;20317;-75
2024/01/27 06:16:10;;;;;;;0.20;0.20;;;;;;;-1.79;100.00;98302.88;4953801;28;20547;-75
2024/01/27 06:18:58;;;;;;;0.20;0.20;;;;;;;-1.84;100.00;98304.19;4987825;28;20468;-72
2024/01/27 06:21:44;;;;;;;0.20;0.20;;;;;;;-1.88;100.00;98311.47;4989922;28;20057;-72
2024/01/27 06:24:30;;;;;;;0.20;0.20;;;;;;;-1.91;100.00;98314.38;4987412;28;20425;-73
2024/01/27 06:27:16;;;;;;;0.20;0.20;;;;;;;-1.94;100.00;98314.63;4988568;28;20101;-75
2024/01/27 06:30:02;;;;;;;0.20;0.20;;;;;;;-2.10;100.00;98315.03;4989085;28;20045;-73
2024/01/27 06:32:47;;;;;;;0.20;0.20;;;;;;;-2.08;100.00;98312.28;4988698;28;20578;-73
2024/01/27 06:35:36;;;;;;;0.28;0.28;;;;;;;-2.07;100.00;98301.66;4985608;28;20038;-73
2024/01/27 06:38:22;;;;;;;0.20;0.20;;;;;;;-2.26;100.00;98309.31;4987870;28;20485;-73
2024/01/27 06:41:09;;;;;;;0.20;0.20;;;;;;;-2.26;100.00;98298.84;4990101;28;20060;-72
2024/01/27 06:43:55;;;;;;;0.20;0.20;;;;;;;-2.30;100.00;98292.19;5000099;28;20496;-75
2024/01/27 06:46:41;;;;;;;0.20;0.20;;;;;;;-2.38;100.00;98302.47;4988478;28;20038;-75
2024/01/27 06:49:27;;;;;;;0.30;0.30;;;;;;;-2.41;100.00;98298.31;4987902;28;20092;-75
2024/01/27 06:52:12;;;;;;;0.22;0.22;;;;;;;-2.39;100.00;98291.13;4987360;28;20359;-75
2024/01/27 06:54:58;;;;;;;0.30;0.30;;;;;;;-2.49;100.00;98290.22;4987986;28;20042;-72
2024/01/27 06:57:44;;;;;;;0.20;0.20;;;;;;;-2.50;100.00;98279.81;4987071;28;20090;-72
2024/01/27 07:00:30;;;;;;;0.20;0.20;;;;;;;-2.51;100.00;98286.88;4986519;28;20045;-73
2024/01/27 07:03:16;;;;;;;0.20;0.20;;;;;;;-2.59;100.00;98295.34;4986297;28;20046;-76
2024/01/27 07:06:02;;;;;;;0.20;0.20;;;;;;;-2.55;100.00;98285.47;4991277;28;20050;-73
2024/01/27 07:08:47;;;;;;;0.20;0.20;;;;;;;-2.59;100.00;98279.59;4988247;28;20050;-73
2024/01/27 07:11:33;;;;;;;0.20;0.20;;;;;;;-2.54;100.00;98293.19;4986144;28;20042;-74
2024/01/27 07:14:19;;;;;;;0.20;0.20;;;;;;;-2.63;100.00;98286.06;4985784;28;20050;-74
2024/01/27 07:17:05;;;;;;;0.20;0.20;;;;;;;-2.56;100.00;98297.72;4989525;28;20043;-76
2024/01/27 07:19:51;;;;;;;0.20;0.20;;;;;;;-2.49;100.00;98284.13;4988348;28;20508;-76
2024/01/27 07:22:37;;;;;;;0.30;0.30;;;;;;;-2.67;100.00;98278.56;4986345;28;20529;-73
2024/01/27 07:25:23;;;;;;;0.20;0.20;;;;;;;-2.52;100.00;98291.28;4991695;28;20141;-76
2024/01/27 07:28:08;;;;;;;0.30;0.30;;;;;;;-2.56;100.00;98296.91;4987661;28;20557;-74
2024/01/27 07:30:54;;;;;;;0.20;0.20;;;;;;;-2.60;100.00;98303.31;4989659;28;20149;-73
2024/01/27 07:33:40;;;;;;;0.20;0.20;;;;;;;-2.49;100.00;98299.84;4992872;28;20034;-73
2024/01/27 07:36:30;;;;;;;0.20;0.20;;;;;;;-2.39;100.00;98306.88;4992521;28;20050;-75
2024/01/27 07:39:16;;;;;;;0.20;0.20;;;;;;;-2.31;100.00;98298.41;4990507;28;20042;-76
2024/01/27 07:42:02;;;;;;;0.30;0.30;;;;;;;-2.37;100.00;98298.88;4988224;28;20041;-77
2024/01/27 07:44:49;;;;;;;0.25;0.25;;;;;;;-2.27;100.00;98312.91;4989732;28;20087;-73
2024/01/27 07:47:35;;;;;;;0.20;0.20;;;;;;;-2.25;100.00;98318.88;4991222;28;20046;-75
2024/01/27 07:50:22;;;;;;;0.30;0.30;;;;;;;-2.18;100.00;98309.53;4990790;28;20037;-75
2024/01/27 07:53:08;;;;;;;0.30;0.30;;;;;;;-2.11;100.00;98318.59;4989032;28;20128;-73
2024/01/27 07:55:56;;;;;;;0.22;0.22;;;;;;;-2.02;100.00;98319.66;4993022;28;20053;-75
2024/01/27 07:58:41;;;;;;;0.20;0.20;;;;;;;-1.96;100.00;98316.53;4990238;28;20512;-77
2024/01/27 08:01:27;;;;;;;0.20;0.20;;;;;;;-2.04;100.00;98317.13;4990669;28;20111;-75
2024/01/27 08:04:15;;;;;;;0.20;0.20;;;;;;;-1.91;100.00;98321.41;4988991;28;20278;-73
2024/01/27 08:07:06;;;;;;;0.20;0.20;;;;;;;-1.82;100.00;98326.72;4994355;28;20069;-74
2024/01/27 08:09:51;;;;;;;0.20;0.20;;;;;;;-1.76;100.00;98336.72;4989587;28;20052;-73
2024/01/27 08:12:38;;;;;;;0.20;0.20;;;;;;;-1.74;100.00;98339.22;4989772;28;20938;-75
2024/01/27 08:15:24;;;;;;;0.20;0.20;;;;;;;-1.72;100.00;98342.56;4989856;28;20076;-75
2024/01/27 08:18:09;;;;;;;0.20;0.20;;;;;;;-1.74;100.00;98347.09;4990862;28;20354;-72
2024/01/27 08:20:55;;;;;;;0.20;0.20;;;;;;;-1.70;100.00;98341.50;4990606;28;20484;-75
2024/01/27 08:23:41;;;;;;;0.20;0.20;;;;;;;-1.69;100.00;98337.06;4989093;28;20694;-73
2024/01/27 08:26:27;;;;;;;0.22;0.22;;;;;;;-1.60;100.00;98338.09;4991094;28;20048;-75
2024/01/27 08:29:13;;;;;;;0.20;0.20;;;;;;;-1.57;100.00;98349.16;4992383;28;20070;-75
2024/01/27 08:31:59;;;;;;;0.20;0.20;;;;;;;-1.55;100.00;98355.16;4987845;28;20079;-77
2024/01/27 08:34:45;;;;;;;0.20;0.20;;;;;;;-1.42;100.00;98358.41;4989514;28;20615;-74
2024/01/27 08:37:36;;;;;;;0.20;0.20;;;;;;;-1.37;100.00;98346.72;4988013;28;20038;-75
2024/01/27 08:40:22;;;;;;;0.20;0.20;;;;;;;-1.24;100.00;98353.44;4990174;28;20236;-75
2024/01/27 08:43:09;;;;;;;0.20;0.20;;;;;;;-1.13;100.00;98357.78;4989202;28;20190;-74
2024/01/27 08:45:56;;;;;;;0.20;0.20;;;;;;;-1.12;100.00;98357.66;4992138;28;20084;-74
2024/01/27 08:48:42;;;;;;;0.28;0.28;;;;;;;-1.03;100.00;98369.19;4989538;28;20089;-74
2024/01/27 08:51:28;;;;;;;0.15;0.15;;;;;;;-0.95;100.00;98374.63;4986511;28;20489;-73
2024/01/27 08:54:14;;;;;;;0.20;0.20;;;;;;;-0.86;100.00;98373.88;4991738;28;20132;-74
2024/01/27 08:56:59;;;;;;;0.13;0.13;;;;;;;-0.81;100.00;98378.72;4989492;28;20097;-74
2024/01/27 08:59:48;;;;;;;0.28;0.28;;;;;;;-0.71;100.00;98376.13;4989239;28;20054;-74
2024/01/27 09:02:34;;;;;;;0.20;0.20;;;;;;;-0.58;100.00;98382.00;4985662;28;20044;-74
2024/01/27 09:05:20;;;;;;;0.20;0.20;;;;;;;-0.48;100.00;98372.34;4990961;28;20053;-73
2024/01/27 09:08:07;;;;;;;0.20;0.20;;;;;;;-0.44;100.00;98371.13;4991411;28;20096;-74
2024/01/27 09:10:53;;;;;;;0.25;0.25;;;;;;;-0.25;100.00;98383.53;4989868;28;20480;-73
2024/01/27 09:13:39;;;;;;;0.20;0.20;;;;;;;-0.18;100.00;98382.03;4987815;28;20100;-74
2024/01/27 09:16:25;;;;;;;0.20;0.20;;;;;;;-0.16;100.00;98380.06;4988527;28;20046;-75
2024/01/27 09:19:11;;;;;;;0.20;0.20;;;;;;;0.03;100.00;98389.84;4989363;28;20049;-76
2024/01/27 09:21:59;;;;;;;0.20;0.20;;;;;;;0.08;100.00;98402.56;4990765;28;20046;-75
2024/01/27 09:24:45;;;;;;;0.20;0.20;;;;;;;0.25;100.00;98386.97;4992105;28;20057;-73
2024/01/27 09:27:31;;;;;;;0.20;0.20;;;;;;;0.39;100.00;98398.91;4990214;28;20046;-74
2024/01/27 09:30:18;;;;;;;0.30;0.30;;;;;;;0.50;100.00;98387.41;4988403;28;20238;-73
2024/01/27 09:33:04;;;;;;;0.20;0.20;;;;;;;0.63;100.00;98401.16;4988765;28;20054;-74
2024/01/27 09:35:53;;;;;;;0.20;0.20;;;;;;;0.89;100.00;98395.31;4992075;28;20042;-74
2024/01/27 09:38:39;;;;;;;0.20;0.20;;;;;;;1.20;100.00;98406.50;4989630;28;20409;-74
2024/01/27 09:41:34;;;;;;;0.30;0.30;;;;;;;1.67;100.00;98402.88;4988599;28;20482;-73
2024/01/27 09:44:20;;;;;;;0.30;0.30;;;;;;;2.56;100.00;98381.06;4989574;28;20050;-73
2024/01/27 09:47:06;;;;;;;0.35;0.35;;;;;;;3.80;100.00;98402.94;4990755;28;20045;-74
2024/01/27 09:49:52;;;;;;;0.40;0.40;;;;;;;5.45;100.00;98403.88;4989377;28;20046;-75
2024/01/27 09:52:38;;;;;;;0.40;0.40;;;;;;;6.89;100.00;98402.56;4989084;28;20641;-73
2024/01/27 09:55:24;;;;;;;0.60;0.43;;;;;;;7.82;100.00;98401.38;4990468;28;20049;-73
2024/01/27 09:58:11;;;;;;;0.38;0.30;;;;;;;9.01;100.00;98392.13;4988601;28;20650;-74
2024/01/27 10:00:59;;;;;;;0.50;0.40;;;;;;;10.77;96.25;98378.34;4986231;28;20103;-76
2024/01/27 10:03:46;;;;;;;0.45;0.40;;;;;;;11.87;80.67;98381.44;4988794;28;20046;-75
2024/01/27 10:06:32;;;;;;;0.40;0.40;;;;;;;11.96;69.36;98383.69;4989681;28;20533;-74
2024/01/27 10:09:18;;;;;;;0.40;0.40;;;;;;;12.57;63.14;98373.53;4990836;28;20183;-77
2024/01/27 10:12:05;;;;;;;0.50;0.40;;;;;;;13.92;59.02;98374.78;4986173;28;20042;-77
2024/01/27 10:14:52;;;;;;;0.50;0.40;;;;;;;13.73;50.02;98381.19;4987169;28;20040;-77
2024/01/27 10:17:38;;;;;;;0.40;0.40;;;;;;;15.25;50.42;98366.63;4989630;28;20037;-75
2024/01/27 10:20:28;;;;;;;0.35;0.35;;;;;;;13.55;49.30;98365.84;4990739;28;20048;-75
2024/01/27 10:23:14;;;;;;;0.70;0.50;;;;;;;13.98;50.85;98371.19;4988066;28;20416;-77
2024/01/27 10:26:04;;;;;;;0.40;0.40;;;;;;;16.21;48.18;98367.22;4989325;28;20082;-76
2024/01/27 10:28:54;;;;;;;0.30;0.30;;;;;;;17.77;45.13;98364.91;4983239;28;20056;-74
2024/01/27 10:31:40;;;;;;;0.30;0.30;;;;;;;18.00;40.05;98353.03;4986277;28;20038;-75
2024/01/27 10:34:26;;;;;;;0.38;0.38;;;;;;;17.42;40.98;98353.50;4989602;28;20057;-76
2024/01/27 10:37:13;;;;;;;0.30;0.30;;;;;;;19.16;44.20;98350.03;4987016;28;20061;-75
2024/01/27 10:40:09;;;;;;;0.40;0.40;;;;;;;20.31;37.99;98350.28;4988400;28;20712;-75
2024/01/27 10:43:17;;;;;;;0.20;0.20;;;;;;;18.79;33.24;98346.41;4986673;28;20435;-76
2024/01/27 10:46:06;;;;;;;0.30;0.30;;;;;;;18.63;39.96;98340.81;5005430;28;20049;-76
2024/01/27 10:48:55;;;;;;;0.20;0.20;;;;;;;18.78;40.96;98333.94;4988299;28;20200;-75
2024/01/27 10:51:58;;;;;;;0.32;0.30;;;;;;;16.78;37.78;98342.13;4989251;28;20074;-75
2024/01/27 10:54:45;;;;;;;0.30;0.30;;;;;;;18.21;37.14;98340.59;4987314;28;20045;-76
2024/01/27 10:57:33;;;;;;;0.30;0.30;;;;;;;17.81;34.42;98336.25;4987244;28;20045;-74
2024/01/27 11:00:19;;;;;;;0.22;0.22;;;;;;;18.89;34.00;98324.81;4989207;28;20136;-78
2024/01/27 11:03:08;;;;;;;0.20;0.20;;;;;;;18.82;37.16;98340.47;4994613;28;20395;-75
2024/01/27 11:05:55;;;;;;;0.35;0.30;;;;;;;17.87;38.78;98358.00;4993275;28;20037;-76
2024/01/27 11:08:41;;;;;;;0.20;0.20;;;;;;;20.28;36.66;98363.56;4991794;28;20041;-75
2024/01/27 11:11:27;;;;;;;0.30;0.30;;;;;;;20.03;31.73;98356.94;4990830;28;20065;-78
2024/01/27 11:14:13;;;;;;;0.20;0.20;;;;;;;16.96;36.28;98360.84;4992337;28;20540;-78
2024/01/27 11:16:59;;;;;;;0.30;0.30;;;;;;;18.56;37.67;98358.34;4990728;28;20049;-78
2024/01/27 11:19:46;;;;;;;0.20;0.20;;;;;;;21.59;32.18;98355.97;4995155;28;20127;-75
2024/01/27 11:22:32;;;;;;;0.20;0.20;;;;;;;20.28;33.53;98344.53;5007591;28;20093;-75
2024/01/27 11:25:19;;;;;;;0.25;0.22;;;;;;;19.80;34.77;98345.66;4993518;28;20485;-78
2024/01/27 11:28:14;;;;;;;0.30;0.30;;;;;;;20.38;30.70;98335.59;4994062;28;20041;-76
2024/01/27 11:31:04;;;;;;;0.20;0.20;;;;;;;21.89;31.23;98341.50;4990233;28;20511;-75
2024/01/27 11:33:51;;;;;;;;;;;;;;;22.88;26.02;98330.75;4992997;28;20092;-76
2024/01/27 11:36:38;;;;;;;0.20;0.20;;;;;;;23.31;30.49;98329.88;4991949;28;20326;-75
2024/01/27 11:39:28;;;;;;;0.30;0.30;;;;;;;22.71;26.97;98340.09;4990529;28;20038;-77
2024/01/27 11:42:14;;;;;;;;;;;;;;;22.03;28.30;98342.56;4992304;28;20034;-77
2024/01/27 11:45:01;;;;;;;0.20;0.20;;;;;;;21.08;30.76;98336.88;4990364;28;20467;-75
2024/01/27 11:47:47;;;;;;;0.13;0.13;;;;;;;22.63;31.13;98356.25;4990157;28;20050;-77
2024/01/27 11:50:33;;;;;;;0.20;0.20;;;;;;;22.94;27.95;98367.84;4989858;28;20042;-78
2024/01/27 11:53:18;;;;;;;0.20;0.20;;;;;;;24.71;26.52;98356.31;4990301;28;20046;-77
2024/01/27 11:56:05;;;;;;;0.20;0.20;;;;;;;23.11;25.08;98353.78;4991975;28;20180;-77
2024/01/27 11:58:51;;;;;;;0.22;0.22;;;;;;;22.78;26.16;98346.06;4994646;28;20089;-77
2024/01/27 12:01:38;;;;;;;0.30;0.30;;;;;;;18.93;30.93;98358.50;4990510;28;20460;-76
2024/01/27 12:04:24;;;;;;;0.20;0.20;;;;;;;18.22;32.22;98360.38;4992021;28;20141;-76
2024/01/27 12:07:10;;;;;;;0.13;0.13;;;;;;;21.34;30.54;98344.00;4990828;28;20042;-75
2024/01/27 12:09:56;;;;;;;0.20;0.20;;;;;;;24.14;28.12;98339.78;4992478;28;20049;-78
2024/01/27 12:12:42;;;;;;;0.13;0.13;;;;;;;25.10;27.79;98320.47;4989361;28;20440;-75
2024/01/27 12:15:28;;;;;;;0.20;0.20;;;;;;;26.40;24.80;98311.28;4988375;28;20046;-78
2024/01/27 12:18:14;;;;;;;0.20;0.20;;;;;;;23.42;25.27;98314.22;4989956;28;20041;-78
2024/01/27 12:21:00;;;;;;;0.20;0.20;;;;;;;25.78;25.50;98313.59;4991371;28;20095;-76
2024/01/27 12:23:56;;;;;;;0.20;0.20;;;;;;;26.30;22.64;98323.28;4989579;28;20054;-76
2024/01/27 12:26:42;;;;;;;0.25;0.25;;;;;;;25.66;25.38;98322.25;4992641;28;20045;-75
2024/01/27 12:29:28;;;;;;;0.25;0.25;;;;;;;23.85;24.48;98319.84;4991455;28;20046;-76
2024/01/27 12:32:15;;;;;;;0.25;0.25;;;;;;;23.76;24.95;98322.41;4990915;28;20141;-76
2024/01/27 12:35:05;;;;;;;0.40;0.30;;;;;;;24.65;25.47;98308.22;4991990;28;20050;-76
2024/01/27 12:37:51;;;;;;;0.20;0.20;;;;;;;27.24;24.40;98313.53;4989005;28;20058;-76
2024/01/27 12:40:38;;;;;;;0.20;0.20;;;;;;;27.34;24.37;98304.22;4992131;28;20038;-76
2024/01/27 12:43:23;;;;;;;0.20;0.20;;;;;;;28.48;23.20;98307.19;4992582;28;20053;-78
2024/01/27 12:46:11;;;;;;;0.20;0.20;;;;;;;26.56;22.32;98306.28;4990490;28;20037;-76
2024/01/27 12:48:56;;;;;;;0.20;0.20;;;;;;;23.59;24.82;98311.91;4991756;28;20089;-77
2024/01/27 12:51:42;;;;;;;0.10;0.10;;;;;;;23.62;24.55;98322.28;4988239;28;20046;-75
2024/01/27 12:54:28;;;;;;;0.20;0.20;;;;;;;26.55;24.45;98321.94;4990151;28;20034;-76
2024/01/27 12:57:14;;;;;;;0.20;0.20;;;;;;;26.92;24.41;98320.00;4990170;28;20088;-74
2024/01/27 13:00:00;;;;;;;0.20;0.20;;;;;;;28.01;21.34;98324.16;4992799;28;20057;-76